createdAt,value
2022-10-14T00:00:01.704Z,12.7
2022-10-14T00:01:01.304Z,12.7
2022-10-14T00:02:00.896Z,12.7
2022-10-14T00:03:01.440Z,12.7
2022-10-14T00:04:01.014Z,12.7
2022-10-14T00:05:01.602Z,12.7
2022-10-14T00:06:01.193Z,12.7
2022-10-14T00:07:01.743Z,12.7
2022-10-14T00:08:01.319Z,12.7
2022-10-14T00:09:00.895Z,12.7
2022-10-14T00:10:01.462Z,12.7
2022-10-14T00:11:01.059Z,12.7
2022-10-14T00:12:01.639Z,12.7
2022-10-14T00:13:01.214Z,12.7
2022-10-14T00:14:01.790Z,12.7
2022-10-14T00:15:01.363Z,12.7
2022-10-14T00:16:00.956Z,12.7
2022-10-14T00:17:01.586Z,12.6
2022-10-14T00:18:01.160Z,12.6
2022-10-14T00:19:01.737Z,12.7
2022-10-14T00:20:01.314Z,12.6
2022-10-14T00:21:00.908Z,12.7
2022-10-14T00:22:01.460Z,12.6
2022-10-14T00:23:01.035Z,12.6
2022-10-14T00:24:01.635Z,12.7
2022-10-14T00:25:01.207Z,12.6
2022-10-14T00:26:01.794Z,12.7
2022-10-14T00:27:01.369Z,12.7
2022-10-14T00:28:00.940Z,12.7
2022-10-14T00:29:01.512Z,12.7
2022-10-14T00:30:01.089Z,12.6
2022-10-14T00:31:01.679Z,12.6
2022-10-14T00:32:01.250Z,12.6
2022-10-14T00:33:00.846Z,12.6
2022-10-14T00:34:01.395Z,12.6
2022-10-14T00:35:00.986Z,12.6
2022-10-14T00:36:01.565Z,12.6
2022-10-14T00:37:01.139Z,12.6
2022-10-14T00:38:01.732Z,12.6
2022-10-14T00:39:01.304Z,12.7
2022-10-14T00:40:00.878Z,12.7
2022-10-14T00:41:01.449Z,12.6
2022-10-14T00:42:01.020Z,12.6
2022-10-14T00:43:01.611Z,12.7
2022-10-14T00:44:01.202Z,12.7
2022-10-14T00:45:01.767Z,12.7
2022-10-14T00:46:01.345Z,12.7
2022-10-14T00:47:00.935Z,12.7
2022-10-14T00:48:01.526Z,12.7
2022-10-14T00:49:01.125Z,12.7
2022-10-14T00:50:01.680Z,12.7
2022-10-14T00:51:01.259Z,12.7
2022-10-14T00:52:00.851Z,12.7
2022-10-14T00:53:01.420Z,12.7
2022-10-14T00:54:01.091Z,12.7
2022-10-14T00:55:01.581Z,12.7
2022-10-14T00:56:01.156Z,12.7
2022-10-14T00:57:01.752Z,12.7
2022-10-14T00:58:01.324Z,12.7
2022-10-14T00:59:00.900Z,12.7
2022-10-14T01:00:01.488Z,12.7
2022-10-14T01:01:01.136Z,12.7
2022-10-14T01:02:01.638Z,12.7
2022-10-14T01:03:01.210Z,12.7
2022-10-14T01:04:01.782Z,12.7
2022-10-14T01:05:01.397Z,12.7
2022-10-14T01:06:00.988Z,12.7
2022-10-14T01:07:01.545Z,12.7
2022-10-14T01:08:01.140Z,12.7
2022-10-14T01:09:01.694Z,12.7
2022-10-14T01:10:01.284Z,12.7
2022-10-14T01:11:00.852Z,12.7
2022-10-14T01:12:23.796Z,12.7
2022-10-14T01:13:00.981Z,12.7
2022-10-14T01:14:01.569Z,12.7
2022-10-14T01:15:01.142Z,12.7
2022-10-14T01:16:01.716Z,12.7
2022-10-14T01:17:01.289Z,12.7
2022-10-14T01:18:00.883Z,12.8
2022-10-14T01:19:01.440Z,12.7
2022-10-14T01:20:01.011Z,12.7
2022-10-14T01:21:01.611Z,12.8
2022-10-14T01:22:01.189Z,12.8
2022-10-14T01:23:01.781Z,12.8
2022-10-14T01:24:01.384Z,12.8
2022-10-14T01:25:01.067Z,12.8
2022-10-14T01:26:01.546Z,12.8
2022-10-14T01:27:01.124Z,12.8
2022-10-14T01:28:01.701Z,12.8
2022-10-14T01:29:01.313Z,12.8
2022-10-14T01:30:00.851Z,12.8
2022-10-14T01:31:01.422Z,12.8
2022-10-14T01:32:00.993Z,12.8
2022-10-14T01:33:01.566Z,12.7
2022-10-14T01:34:01.159Z,12.8
2022-10-14T01:35:01.717Z,12.7
2022-10-14T01:36:01.297Z,12.7
2022-10-14T01:37:00.899Z,12.7
2022-10-14T01:38:01.448Z,12.7
2022-10-14T01:39:01.040Z,12.8
2022-10-14T01:40:01.608Z,12.8
2022-10-14T01:41:01.187Z,12.8
2022-10-14T01:42:01.756Z,12.8
2022-10-14T01:43:01.329Z,12.8
2022-10-14T01:44:00.919Z,12.8
2022-10-14T01:45:01.475Z,12.8
2022-10-14T01:46:01.048Z,12.7
2022-10-14T01:47:01.622Z,12.7
2022-10-14T01:48:01.220Z,12.7
2022-10-14T01:49:01.786Z,12.8
2022-10-14T01:50:01.381Z,12.7
2022-10-14T01:51:00.959Z,12.7
2022-10-14T01:52:01.537Z,12.8
2022-10-14T01:53:01.168Z,12.7
2022-10-14T01:54:01.698Z,12.7
2022-10-14T01:55:01.327Z,12.8
2022-10-14T01:56:00.862Z,12.8
2022-10-14T01:57:01.437Z,12.7
2022-10-14T01:58:01.010Z,12.7
2022-10-14T01:59:01.581Z,12.7
2022-10-14T02:00:01.170Z,12.7
2022-10-14T02:01:01.722Z,12.7
2022-10-14T02:02:01.369Z,12.7
2022-10-14T02:03:00.870Z,12.7
2022-10-14T02:04:01.445Z,12.7
2022-10-14T02:05:01.032Z,12.7
2022-10-14T02:06:01.623Z,12.7
2022-10-14T02:07:01.196Z,12.7
2022-10-14T02:08:01.771Z,12.7
2022-10-14T02:09:01.371Z,12.7
2022-10-14T02:10:00.948Z,12.7
2022-10-14T02:11:02.511Z,12.7
2022-10-14T02:12:01.233Z,12.7
2022-10-14T02:13:01.763Z,12.7
2022-10-14T02:14:01.335Z,12.7
2022-10-14T02:15:00.908Z,12.7
2022-10-14T02:16:01.495Z,12.7
2022-10-14T02:17:01.068Z,12.6
2022-10-14T02:18:01.645Z,12.7
2022-10-14T02:19:01.235Z,12.7
2022-10-14T02:20:01.802Z,12.7
2022-10-14T02:21:01.375Z,12.6
2022-10-14T02:22:00.967Z,12.7
2022-10-14T02:23:01.533Z,12.6
2022-10-14T02:24:01.107Z,12.6
2022-10-14T02:25:01.709Z,12.7
2022-10-14T02:26:01.282Z,12.7
2022-10-14T02:27:00.877Z,12.6
2022-10-14T02:28:01.429Z,12.6
2022-10-14T02:29:01.075Z,12.6
2022-10-14T02:30:01.573Z,12.7
2022-10-14T02:31:01.148Z,12.6
2022-10-14T02:32:01.741Z,12.7
2022-10-14T02:33:01.324Z,12.7
2022-10-14T02:34:00.887Z,12.6
2022-10-14T02:35:01.477Z,12.6
2022-10-14T02:36:01.048Z,12.6
2022-10-14T02:37:01.623Z,12.6
2022-10-14T02:38:01.199Z,12.6
2022-10-14T02:39:01.773Z,12.6
2022-10-14T02:40:01.360Z,12.5
2022-10-14T02:41:00.957Z,12.5
2022-10-14T02:42:01.509Z,12.5
2022-10-14T02:43:01.098Z,12.5
2022-10-14T02:44:01.671Z,12.5
2022-10-14T02:45:01.243Z,12.5
2022-10-14T02:46:00.838Z,12.5
2022-10-14T02:47:01.392Z,12.6
2022-10-14T02:48:00.964Z,12.6
2022-10-14T02:49:01.555Z,12.6
2022-10-14T02:50:01.133Z,12.6
2022-10-14T02:51:01.707Z,12.6
2022-10-14T02:52:01.283Z,12.6
2022-10-14T02:53:00.859Z,12.6
2022-10-14T02:54:01.446Z,12.6
2022-10-14T02:55:01.018Z,12.6
2022-10-14T02:56:01.637Z,12.5
2022-10-14T02:57:01.233Z,12.5
2022-10-14T02:58:01.809Z,12.4
2022-10-14T02:59:01.400Z,12.5
2022-10-14T03:00:00.974Z,12.5
2022-10-14T03:01:01.549Z,12.5
2022-10-14T03:02:01.202Z,12.6
2022-10-14T03:03:01.697Z,12.6
2022-10-14T03:04:01.288Z,12.6
2022-10-14T03:05:00.843Z,12.6
2022-10-14T03:06:01.414Z,12.6
2022-10-14T03:07:00.988Z,12.6
2022-10-14T03:08:01.566Z,12.6
2022-10-14T03:09:01.156Z,12.7
2022-10-14T03:10:01.731Z,12.6
2022-10-14T03:11:01.303Z,12.7
2022-10-14T03:12:00.876Z,12.6
2022-10-14T03:13:01.473Z,12.6
2022-10-14T03:14:01.047Z,12.5
2022-10-14T03:15:01.640Z,12.6
2022-10-14T03:16:01.215Z,12.6
2022-10-14T03:17:01.789Z,12.6
2022-10-14T03:18:01.372Z,12.6
2022-10-14T03:19:00.950Z,12.6
2022-10-14T03:20:01.544Z,12.6
2022-10-14T03:21:01.146Z,12.6
2022-10-14T03:22:01.702Z,12.5
2022-10-14T03:23:01.276Z,12.5
2022-10-14T03:24:00.848Z,12.5
2022-10-14T03:25:01.419Z,12.6
2022-10-14T03:26:01.013Z,12.6
2022-10-14T03:27:01.582Z,12.6
2022-10-14T03:28:01.155Z,12.6
2022-10-14T03:29:01.753Z,12.6
2022-10-14T03:30:01.326Z,12.6
2022-10-14T03:31:00.916Z,12.6
2022-10-14T03:32:01.471Z,12.5
2022-10-14T03:33:01.042Z,12.6
2022-10-14T03:34:01.615Z,12.6
2022-10-14T03:35:01.186Z,12.6
2022-10-14T03:36:01.779Z,12.6
2022-10-14T03:37:01.356Z,12.6
2022-10-14T03:38:00.929Z,12.6
2022-10-14T03:39:01.503Z,12.6
2022-10-14T03:40:01.075Z,12.6
2022-10-14T03:41:01.670Z,12.6
2022-10-14T03:42:01.245Z,12.6
2022-10-14T03:43:00.817Z,12.6
2022-10-14T03:44:01.394Z,12.5
2022-10-14T03:45:00.991Z,12.5
2022-10-14T03:46:01.571Z,12.6
2022-10-14T03:47:01.159Z,12.6
2022-10-14T03:48:01.722Z,12.6
2022-10-14T03:49:01.295Z,12.6
2022-10-14T03:50:00.870Z,12.6
2022-10-14T03:51:01.460Z,12.6
2022-10-14T03:52:01.050Z,12.6
2022-10-14T03:53:01.604Z,12.6
2022-10-14T03:54:01.178Z,12.6
2022-10-14T03:55:01.751Z,12.6
2022-10-14T03:56:01.371Z,12.6
2022-10-14T03:57:00.958Z,12.6
2022-10-14T03:58:01.533Z,12.7
2022-10-14T03:59:01.103Z,12.6
2022-10-14T04:00:01.691Z,12.6
2022-10-14T04:01:01.297Z,12.5
2022-10-14T04:02:00.897Z,12.6
2022-10-14T04:03:01.459Z,12.5
2022-10-14T04:04:01.031Z,12.5
2022-10-14T04:05:01.603Z,12.5
2022-10-14T04:06:01.176Z,12.5
2022-10-14T04:07:01.766Z,12.5
2022-10-14T04:08:01.339Z,12.5
2022-10-14T04:09:00.913Z,12.6
2022-10-14T04:10:01.490Z,12.6
2022-10-14T04:11:01.065Z,12.6
2022-10-14T04:12:01.653Z,12.6
2022-10-14T04:13:01.246Z,12.6
2022-10-14T04:14:01.812Z,12.5
2022-10-14T04:15:01.384Z,12.6
2022-10-14T04:16:00.957Z,12.5
2022-10-14T04:17:01.562Z,12.5
2022-10-14T04:18:01.154Z,12.5
2022-10-14T04:19:01.711Z,12.5
2022-10-14T04:20:01.285Z,12.6
2022-10-14T04:21:00.856Z,12.6
2022-10-14T04:22:01.430Z,12.6
2022-10-14T04:23:01.027Z,12.6
2022-10-14T04:24:04.881Z,12.6
2022-10-14T04:25:01.131Z,12.6
2022-10-14T04:26:01.703Z,12.6
2022-10-14T04:27:01.277Z,12.6
2022-10-14T04:28:00.879Z,12.5
2022-10-14T04:29:01.537Z,12.6
2022-10-14T04:30:01.089Z,12.6
2022-10-14T04:31:01.665Z,12.6
2022-10-14T04:32:01.242Z,12.6
2022-10-14T04:33:00.857Z,12.6
2022-10-14T04:34:01.415Z,12.6
2022-10-14T04:35:00.991Z,12.6
2022-10-14T04:36:01.590Z,12.5
2022-10-14T04:37:01.169Z,12.5
2022-10-14T04:38:01.762Z,12.6
2022-10-14T04:39:01.336Z,12.5
2022-10-14T04:40:00.910Z,12.5
2022-10-14T04:41:01.509Z,12.5
2022-10-14T04:42:01.086Z,12.5
2022-10-14T04:43:01.654Z,12.5
2022-10-14T04:44:01.227Z,12.5
2022-10-14T04:45:01.804Z,12.6
2022-10-14T04:46:01.405Z,12.5
2022-10-14T04:47:00.983Z,12.7
2022-10-14T04:48:01.553Z,12.6
2022-10-14T04:49:01.160Z,12.6
2022-10-14T04:50:01.725Z,12.6
2022-10-14T04:51:01.297Z,12.6
2022-10-14T04:52:00.872Z,12.6
2022-10-14T04:53:01.445Z,12.6
2022-10-14T04:54:01.034Z,12.5
2022-10-14T04:55:01.610Z,12.5
2022-10-14T04:56:01.184Z,12.5
2022-10-14T04:57:01.793Z,12.5
2022-10-14T04:58:01.371Z,12.5
2022-10-14T04:59:00.956Z,12.5
2022-10-14T05:00:01.543Z,12.5
2022-10-14T05:01:01.120Z,12.6
2022-10-14T05:02:01.767Z,12.6
2022-10-14T05:03:01.352Z,12.6
2022-10-14T05:04:00.938Z,12.5
2022-10-14T05:05:01.547Z,12.6
2022-10-14T05:06:01.127Z,12.5
2022-10-14T05:07:01.701Z,12.6
2022-10-14T05:08:01.277Z,12.6
2022-10-14T05:09:00.852Z,12.6
2022-10-14T05:10:01.442Z,12.6
2022-10-14T05:11:01.022Z,12.6
2022-10-14T05:12:01.608Z,12.6
2022-10-14T05:13:01.186Z,12.7
2022-10-14T05:14:01.761Z,12.6
2022-10-14T05:15:01.334Z,12.6
2022-10-14T05:16:00.906Z,12.6
2022-10-14T05:17:01.495Z,12.6
2022-10-14T05:18:01.069Z,12.6
2022-10-14T05:19:01.642Z,12.7
2022-10-14T05:20:01.218Z,12.6
2022-10-14T05:21:01.817Z,12.6
2022-10-14T05:22:01.413Z,12.6
2022-10-14T05:23:00.987Z,12.6
2022-10-14T05:24:01.560Z,12.6
2022-10-14T05:25:01.148Z,12.5
2022-10-14T05:26:01.711Z,12.5
2022-10-14T05:27:01.284Z,12.5
2022-10-14T05:28:00.858Z,12.5
2022-10-14T05:29:01.476Z,12.6
2022-10-14T05:30:01.068Z,12.6
2022-10-14T05:31:01.640Z,12.6
2022-10-14T05:32:01.217Z,12.6
2022-10-14T05:33:01.791Z,12.6
2022-10-14T05:34:01.386Z,12.5
2022-10-14T05:35:00.965Z,12.5
2022-10-14T05:36:01.540Z,12.5
2022-10-14T05:37:01.141Z,12.5
2022-10-14T05:38:04.175Z,12.5
2022-10-14T05:39:01.258Z,12.5
2022-10-14T05:40:00.832Z,12.6
2022-10-14T05:41:01.427Z,12.6
2022-10-14T05:42:01.002Z,12.5
2022-10-14T05:43:01.573Z,12.6
2022-10-14T05:44:01.166Z,12.5
2022-10-14T05:45:01.734Z,12.6
2022-10-14T05:46:01.332Z,12.6
2022-10-14T05:47:00.913Z,12.6
2022-10-14T05:48:01.488Z,12.5
2022-10-14T05:49:01.060Z,12.5
2022-10-14T05:50:01.635Z,12.5
2022-10-14T05:51:01.231Z,12.5
2022-10-14T05:52:01.790Z,12.5
2022-10-14T05:53:01.390Z,12.5
2022-10-14T05:54:00.966Z,12.5
2022-10-14T05:55:01.539Z,12.6
2022-10-14T05:56:01.130Z,12.6
2022-10-14T05:57:01.757Z,12.6
2022-10-14T05:58:01.334Z,12.6
2022-10-14T05:59:00.908Z,12.6
2022-10-14T06:00:01.478Z,12.6
2022-10-14T06:01:01.070Z,12.7
2022-10-14T06:02:01.629Z,12.6
2022-10-14T06:03:01.248Z,12.6
2022-10-14T06:04:01.794Z,12.6
2022-10-14T06:05:01.373Z,12.6
2022-10-14T06:06:00.961Z,12.6
2022-10-14T06:07:01.550Z,12.7
2022-10-14T06:08:01.127Z,12.6
2022-10-14T06:09:01.727Z,12.7
2022-10-14T06:10:01.305Z,12.7
2022-10-14T06:11:00.902Z,12.7
2022-10-14T06:12:01.482Z,12.7
2022-10-14T06:13:01.056Z,12.7
2022-10-14T06:14:01.634Z,12.7
2022-10-14T06:15:01.207Z,12.7
2022-10-14T06:16:01.782Z,12.7
2022-10-14T06:17:01.382Z,12.7
2022-10-14T06:18:00.959Z,12.7
2022-10-14T06:19:01.536Z,12.7
2022-10-14T06:20:01.113Z,12.8
2022-10-14T06:21:01.685Z,12.8
2022-10-14T06:22:01.276Z,12.8
2022-10-14T06:23:00.833Z,12.8
2022-10-14T06:24:01.406Z,12.9
2022-10-14T06:25:04.165Z,12.9
2022-10-14T06:26:01.519Z,12.9
2022-10-14T06:27:01.112Z,12.9
2022-10-14T06:28:01.701Z,13
2022-10-14T06:29:01.314Z,13
2022-10-14T06:30:00.863Z,13.1
2022-10-14T06:31:01.434Z,13.1
2022-10-14T06:32:01.007Z,13.1
2022-10-14T06:33:01.601Z,13.2
2022-10-14T06:34:01.179Z,13.2
2022-10-14T06:35:01.751Z,13.3
2022-10-14T06:36:01.323Z,13.3
2022-10-14T06:37:02.334Z,13.3
2022-10-14T06:38:01.160Z,13.3
2022-10-14T06:39:01.754Z,13.3
2022-10-14T06:40:01.332Z,13.3
2022-10-14T06:41:00.932Z,13.3
2022-10-14T06:42:01.494Z,13.4
2022-10-14T06:43:01.092Z,13.4
2022-10-14T06:44:01.669Z,13.3
2022-10-14T06:45:01.245Z,13.4
2022-10-14T06:46:01.816Z,13.5
2022-10-14T06:47:01.389Z,13.4
2022-10-14T06:48:00.966Z,13.5
2022-10-14T06:49:01.561Z,13.5
2022-10-14T06:50:01.138Z,13.5
2022-10-14T06:51:01.712Z,13.5
2022-10-14T06:52:01.293Z,13.6
2022-10-14T06:53:00.865Z,13.7
2022-10-14T06:54:01.452Z,13.7
2022-10-14T06:55:01.046Z,13.7
2022-10-14T06:56:01.615Z,13.8
2022-10-14T06:57:01.211Z,13.8
2022-10-14T06:58:01.812Z,13.7
2022-10-14T06:59:01.384Z,13.7
2022-10-14T07:00:00.980Z,13.8
2022-10-14T07:01:01.568Z,13.8
2022-10-14T07:02:01.221Z,13.8
2022-10-14T07:03:01.726Z,13.8
2022-10-14T07:04:01.865Z,13.7
2022-10-14T07:05:01.456Z,13.8
2022-10-14T07:06:01.046Z,13.7
2022-10-14T07:07:01.617Z,13.7
2022-10-14T07:09:01.274Z,13.6
2022-10-14T07:10:00.849Z,13.7
2022-10-14T07:11:01.439Z,13.7
2022-10-14T07:12:01.016Z,13.7
2022-10-14T07:13:01.614Z,13.7
2022-10-14T07:14:01.185Z,13.8
2022-10-14T07:15:01.758Z,13.8
2022-10-14T07:16:01.358Z,13.8
2022-10-14T07:17:00.936Z,13.8
2022-10-14T07:18:01.509Z,13.9
2022-10-14T07:19:01.081Z,13.9
2022-10-14T07:20:01.656Z,13.9
2022-10-14T07:21:01.249Z,13.9
2022-10-14T07:22:01.830Z,14
2022-10-14T07:23:01.427Z,14.1
2022-10-14T07:24:01.003Z,14.1
2022-10-14T07:25:01.578Z,14.2
2022-10-14T07:26:01.151Z,14.2
2022-10-14T07:28:01.313Z,14.2
2022-10-14T07:29:00.950Z,14.3
2022-10-14T07:30:01.486Z,14.4
2022-10-14T07:31:01.094Z,14.4
2022-10-14T07:32:01.686Z,14.4
2022-10-14T07:33:01.262Z,14.4
2022-10-14T07:34:00.836Z,14.5
2022-10-14T07:35:01.405Z,14.5
2022-10-14T07:36:00.981Z,14.4
2022-10-14T07:37:01.573Z,14.4
2022-10-14T07:38:01.146Z,14.5
2022-10-14T07:39:01.725Z,14.6
2022-10-14T07:40:01.298Z,14.6
2022-10-14T07:41:00.870Z,14.7
2022-10-14T07:42:01.462Z,14.6
2022-10-14T07:43:01.037Z,14.5
2022-10-14T07:44:01.610Z,14.5
2022-10-14T07:45:01.215Z,14.6
2022-10-14T07:46:01.774Z,14.6
2022-10-14T07:47:01.363Z,14.6
2022-10-14T07:48:00.937Z,14.6
2022-10-14T07:49:01.514Z,14.5
2022-10-14T07:50:01.094Z,14.5
2022-10-14T07:51:01.685Z,14.6
2022-10-14T07:52:01.274Z,14.6
2022-10-14T07:53:01.483Z,14.6
2022-10-14T07:54:01.240Z,14.5
2022-10-14T07:55:01.814Z,14.5
2022-10-14T07:56:01.407Z,14.5
2022-10-14T07:57:01.015Z,14.5
2022-10-14T07:58:01.570Z,14.5
2022-10-14T07:59:01.184Z,14.6
2022-10-14T08:00:01.724Z,14.6
2022-10-14T08:01:01.365Z,14.6
2022-10-14T08:02:01.018Z,14.6
2022-10-14T08:03:01.496Z,14.5
2022-10-14T08:04:01.067Z,14.5
2022-10-14T08:05:19.325Z,14.5
2022-10-14T08:06:01.179Z,14.5
2022-10-14T08:07:01.772Z,14.6
2022-10-14T08:08:01.344Z,14.6
2022-10-14T08:09:00.928Z,14.6
2022-10-14T08:10:01.510Z,14.5
2022-10-14T08:11:01.086Z,14.7
2022-10-14T08:12:01.680Z,14.7
2022-10-14T08:13:01.361Z,14.7
2022-10-14T08:14:00.839Z,14.8
2022-10-14T08:15:01.433Z,14.8
2022-10-14T08:16:01.006Z,14.8
2022-10-14T08:17:01.624Z,14.9
2022-10-14T08:18:01.231Z,14.8
2022-10-14T08:19:01.821Z,14.8
2022-10-14T08:20:01.394Z,15
2022-10-14T08:21:00.970Z,15
2022-10-14T08:22:01.562Z,15.1
2022-10-14T08:23:01.131Z,15.2
2022-10-14T08:24:01.720Z,15.2
2022-10-14T08:25:01.308Z,15.3
2022-10-14T08:26:00.880Z,15.3
2022-10-14T08:27:01.457Z,15.4
2022-10-14T08:28:01.034Z,15.3
2022-10-14T08:29:01.628Z,15.3
2022-10-14T08:30:01.202Z,15.3
2022-10-14T08:31:01.796Z,15.4
2022-10-14T08:32:01.366Z,15.3
2022-10-14T08:33:00.964Z,15.3
2022-10-14T08:34:01.529Z,15.4
2022-10-14T08:35:01.111Z,15.3
2022-10-14T08:36:01.703Z,15.3
2022-10-14T08:37:01.278Z,15.3
2022-10-14T08:38:00.851Z,15.4
2022-10-14T08:39:01.507Z,15.4
2022-10-14T08:40:01.101Z,15.4
2022-10-14T08:41:01.659Z,15.4
2022-10-14T08:42:01.240Z,15.4
2022-10-14T08:43:01.813Z,15.4
2022-10-14T08:44:01.392Z,15.3
2022-10-14T08:45:00.980Z,15.4
2022-10-14T08:46:01.562Z,15.4
2022-10-14T08:47:01.155Z,15.4
2022-10-14T08:48:01.724Z,15.5
2022-10-14T08:49:01.319Z,15.5
2022-10-14T08:50:00.868Z,15.5
2022-10-14T08:51:01.442Z,15.5
2022-10-14T08:52:01.034Z,15.5
2022-10-14T08:53:01.589Z,15.4
2022-10-14T08:54:01.161Z,15.5
2022-10-14T08:55:01.738Z,15.5
2022-10-14T08:56:01.311Z,15.5
2022-10-14T08:57:00.963Z,15.6
2022-10-14T08:58:01.615Z,15.6
2022-10-14T08:59:01.173Z,15.6
2022-10-14T09:00:01.727Z,15.6
2022-10-14T09:01:01.298Z,15.6
2022-10-14T09:02:00.873Z,15.6
2022-10-14T09:03:01.472Z,15.6
2022-10-14T09:04:01.118Z,15.6
2022-10-14T09:05:01.679Z,15.7
2022-10-14T09:06:01.251Z,15.7
2022-10-14T09:07:00.823Z,15.7
2022-10-14T09:08:01.394Z,15.7
2022-10-14T09:09:00.965Z,15.6
2022-10-14T09:10:01.551Z,15.6
2022-10-14T09:11:01.122Z,15.5
2022-10-14T09:12:01.723Z,15.6
2022-10-14T09:13:01.295Z,15.6
2022-10-14T09:14:00.868Z,15.6
2022-10-14T09:15:01.444Z,15.6
2022-10-14T09:16:01.018Z,15.7
2022-10-14T09:17:01.649Z,15.7
2022-10-14T09:18:01.286Z,15.8
2022-10-14T09:19:00.828Z,15.8
2022-10-14T09:20:01.398Z,15.8
2022-10-14T09:21:00.997Z,15.8
2022-10-14T09:22:01.569Z,15.8
2022-10-14T09:23:01.143Z,15.8
2022-10-14T09:24:01.732Z,15.9
2022-10-14T09:25:01.303Z,15.9
2022-10-14T09:26:00.875Z,15.9
2022-10-14T09:27:01.448Z,16
2022-10-14T09:28:01.027Z,16.1
2022-10-14T09:29:01.662Z,16.1
2022-10-14T09:30:01.263Z,16
2022-10-14T09:31:00.832Z,16
2022-10-14T09:32:01.404Z,16
2022-10-14T09:33:00.981Z,16.1
2022-10-14T09:34:01.571Z,16
2022-10-14T09:35:01.145Z,16.1
2022-10-14T09:36:01.718Z,16.2
2022-10-14T09:37:01.316Z,16.2
2022-10-14T09:38:00.880Z,16.1
2022-10-14T09:39:03.660Z,16.2
2022-10-14T09:40:01.030Z,16.2
2022-10-14T09:41:01.602Z,16.2
2022-10-14T09:42:01.175Z,16.2
2022-10-14T09:43:01.746Z,16.2
2022-10-14T09:44:01.337Z,16.3
2022-10-14T09:45:00.967Z,16.3
2022-10-14T09:46:01.494Z,16.1
2022-10-14T09:47:01.065Z,16.1
2022-10-14T09:48:01.643Z,16.2
2022-10-14T09:49:01.230Z,16
2022-10-14T09:50:01.800Z,16
2022-10-14T09:51:01.425Z,16.1
2022-10-14T09:52:00.999Z,16.1
2022-10-14T09:53:01.627Z,16.1
2022-10-14T09:54:01.259Z,16.1
2022-10-14T09:55:01.801Z,16.1
2022-10-14T09:56:01.394Z,16
2022-10-14T09:57:00.966Z,15.9
2022-10-14T09:58:01.541Z,16
2022-10-14T09:59:01.115Z,16
2022-10-14T10:00:01.767Z,16.2
2022-10-14T10:01:01.363Z,16.1
2022-10-14T10:02:00.928Z,16
2022-10-14T10:03:01.501Z,16.1
2022-10-14T10:05:01.649Z,16.1
2022-10-14T10:06:01.239Z,16.1
2022-10-14T10:07:01.814Z,16
2022-10-14T10:08:01.391Z,16.1
2022-10-14T10:09:00.991Z,16.2
2022-10-14T10:10:01.550Z,16.3
2022-10-14T10:11:03.479Z,16.4
2022-10-14T10:12:01.678Z,16.4
2022-10-14T10:13:01.251Z,16.6
2022-10-14T10:14:01.841Z,16.7
2022-10-14T10:15:01.413Z,16.7
2022-10-14T10:16:01.008Z,16.7
2022-10-14T10:17:01.578Z,16.8
2022-10-14T10:18:01.150Z,16.8
2022-10-14T10:19:01.741Z,16.8
2022-10-14T10:20:01.322Z,17
2022-10-14T10:21:00.914Z,17.1
2022-10-14T10:22:01.483Z,17.1
2022-10-14T10:23:01.056Z,17
2022-10-14T10:24:01.629Z,17.2
2022-10-14T10:25:01.242Z,17.2
2022-10-14T10:26:01.789Z,17
2022-10-14T10:27:01.362Z,17.1
2022-10-14T10:28:00.936Z,17
2022-10-14T10:29:01.579Z,17.1
2022-10-14T10:30:01.159Z,17.3
2022-10-14T10:31:01.746Z,17.3
2022-10-14T10:32:01.322Z,17.4
2022-10-14T10:33:00.899Z,17.3
2022-10-14T10:34:01.480Z,17.2
2022-10-14T10:35:01.054Z,17.3
2022-10-14T10:36:01.649Z,17.4
2022-10-14T10:37:01.229Z,17.4
2022-10-14T10:38:01.803Z,17.5
2022-10-14T10:39:01.379Z,17.4
2022-10-14T10:40:00.961Z,17.4
2022-10-14T10:41:01.576Z,17.4
2022-10-14T10:42:01.147Z,17.3
2022-10-14T10:43:01.726Z,17.3
2022-10-14T10:44:01.316Z,17.3
2022-10-14T10:45:00.899Z,17.3
2022-10-14T10:46:01.493Z,17.2
2022-10-14T10:47:01.096Z,17.3
2022-10-14T10:48:01.666Z,17.4
2022-10-14T10:49:01.255Z,17.4
2022-10-14T10:50:01.841Z,17.4
2022-10-14T10:51:01.427Z,17.3
2022-10-14T10:52:01.032Z,17.3
2022-10-14T10:53:01.605Z,17.3
2022-10-14T10:54:01.192Z,17.3
2022-10-14T10:55:01.773Z,17.4
2022-10-14T10:56:01.360Z,17.4
2022-10-14T10:57:00.972Z,17.3
2022-10-14T10:58:02.590Z,17.3
2022-10-14T10:59:01.088Z,17.4
2022-10-14T11:00:01.677Z,17.3
2022-10-14T11:01:01.395Z,17.5
2022-10-14T11:02:01.844Z,17.6
2022-10-14T11:03:01.458Z,17.7
2022-10-14T11:04:01.045Z,17.7
2022-10-14T11:05:01.632Z,17.7
2022-10-14T11:06:01.262Z,17.8
2022-10-14T11:07:01.812Z,17.7
2022-10-14T11:08:01.418Z,17.9
2022-10-14T11:09:01.005Z,18.1
2022-10-14T11:10:01.608Z,18.1
2022-10-14T11:11:01.197Z,18.1
2022-10-14T11:12:01.779Z,18.1
2022-10-14T11:13:01.392Z,18
2022-10-14T11:14:00.978Z,18.1
2022-10-14T11:15:01.570Z,18
2022-10-14T11:16:01.265Z,17.9
2022-10-14T11:17:01.750Z,17.9
2022-10-14T11:18:01.408Z,17.8
2022-10-14T11:19:00.999Z,17.6
2022-10-14T11:20:01.597Z,17.6
2022-10-14T11:21:01.192Z,17.5
2022-10-14T11:22:01.777Z,17.4
2022-10-14T11:23:01.365Z,17.3
2022-10-14T11:24:00.953Z,17.3
2022-10-14T11:25:01.563Z,17.3
2022-10-14T11:26:01.200Z,17.3
2022-10-14T11:27:01.723Z,17.3
2022-10-14T11:28:01.297Z,17.2
2022-10-14T11:29:00.973Z,17.3
2022-10-14T11:30:01.496Z,17.3
2022-10-14T11:31:01.089Z,17.4
2022-10-14T11:32:01.661Z,17.4
2022-10-14T11:33:01.236Z,17.4
2022-10-14T11:34:01.808Z,17.4
2022-10-14T11:35:01.414Z,17.5
2022-10-14T11:36:01.093Z,17.5
2022-10-14T11:37:01.622Z,17.5
2022-10-14T11:38:01.196Z,17.7
2022-10-14T11:39:01.771Z,17.7
2022-10-14T11:40:01.389Z,17.8
2022-10-14T11:41:00.966Z,17.7
2022-10-14T11:42:01.557Z,17.7
2022-10-14T11:43:01.138Z,17.7
2022-10-14T11:44:01.711Z,17.6
2022-10-14T11:45:01.326Z,17.7
2022-10-14T11:46:00.967Z,17.7
2022-10-14T11:47:01.443Z,17.7
2022-10-14T11:48:01.016Z,17.7
2022-10-14T11:49:01.604Z,17.8
2022-10-14T11:50:01.217Z,17.7
2022-10-14T11:51:01.763Z,17.7
2022-10-14T11:52:01.336Z,17.8
2022-10-14T11:53:00.913Z,17.7
2022-10-14T11:54:01.483Z,17.6
2022-10-14T11:55:01.074Z,17.5
2022-10-14T11:56:01.671Z,17.4
2022-10-14T11:57:01.249Z,17.4
2022-10-14T11:58:01.836Z,17.5
2022-10-14T11:59:01.415Z,17.5
2022-10-14T12:00:01.014Z,17.5
2022-10-14T12:01:01.668Z,17.4
2022-10-14T12:02:01.227Z,17.3
2022-10-14T12:03:01.897Z,17.4
2022-10-14T12:04:01.508Z,17.3
2022-10-14T12:05:01.031Z,17.3
2022-10-14T12:06:01.629Z,17.3
2022-10-14T12:07:01.203Z,17.2
2022-10-14T12:08:01.780Z,17.2
2022-10-14T12:09:01.352Z,17.2
2022-10-14T12:10:00.924Z,17.2
2022-10-14T12:11:01.517Z,17.2
2022-10-14T12:12:01.099Z,17.4
2022-10-14T12:13:01.675Z,17.4
2022-10-14T12:14:01.249Z,17.4
2022-10-14T12:15:01.823Z,17.4
2022-10-14T12:16:01.425Z,17.3
2022-10-14T12:17:01.052Z,17.3
2022-10-14T12:18:01.585Z,17.4
2022-10-14T12:19:01.160Z,17.5
2022-10-14T12:20:01.743Z,17.6
2022-10-14T12:21:01.336Z,17.5
2022-10-14T12:22:00.907Z,17.5
2022-10-14T12:23:01.499Z,17.5
2022-10-14T12:24:01.075Z,17.6
2022-10-14T12:25:01.654Z,17.5
2022-10-14T12:26:01.229Z,17.5
2022-10-14T12:27:01.806Z,17.6
2022-10-14T12:28:01.401Z,17.6
2022-10-14T12:29:02.910Z,17.5
2022-10-14T12:30:01.530Z,17.5
2022-10-14T12:31:01.107Z,17.3
2022-10-14T12:32:01.680Z,17.3
2022-10-14T12:33:01.277Z,17.1
2022-10-14T12:34:01.837Z,17.1
2022-10-14T12:35:01.452Z,17.1
2022-10-14T12:36:01.261Z,17.1
2022-10-14T12:37:01.623Z,17
2022-10-14T12:38:01.199Z,17
2022-10-14T12:39:01.774Z,17
2022-10-14T12:40:01.364Z,17.1
2022-10-14T12:41:00.943Z,17.1
2022-10-14T12:42:01.518Z,17.1
2022-10-14T12:43:01.091Z,17.1
2022-10-14T12:44:01.667Z,17
2022-10-14T12:45:01.258Z,16.9
2022-10-14T12:46:01.843Z,16.9
2022-10-14T12:47:01.416Z,16.7
2022-10-14T12:48:00.991Z,16.8
2022-10-14T12:49:01.621Z,16.7
2022-10-14T12:50:01.197Z,16.7
2022-10-14T12:51:01.771Z,16.8
2022-10-14T12:52:01.344Z,16.8
2022-10-14T12:53:00.919Z,16.8
2022-10-14T12:54:01.510Z,16.7
2022-10-14T12:55:01.096Z,16.7
2022-10-14T12:56:01.671Z,16.5
2022-10-14T12:57:01.246Z,16.5
2022-10-14T12:58:01.820Z,16.4
2022-10-14T12:59:01.421Z,16.5
2022-10-14T13:00:00.994Z,16.4
2022-10-14T13:01:01.568Z,16.3
2022-10-14T13:02:01.271Z,16.3
2022-10-14T13:03:01.727Z,16.3
2022-10-14T13:05:00.869Z,16.2
2022-10-14T13:06:01.470Z,16.2
2022-10-14T13:07:04.002Z,16.2
2022-10-14T13:08:01.601Z,16.2
2022-10-14T13:09:01.178Z,16.2
2022-10-14T13:10:01.757Z,16.3
2022-10-14T13:11:01.334Z,16.2
2022-10-14T13:12:00.925Z,16.2
2022-10-14T13:13:01.544Z,16.1
2022-10-14T13:14:01.150Z,16.1
2022-10-14T13:15:01.739Z,16.1
2022-10-14T13:16:01.319Z,16.2
2022-10-14T13:17:00.917Z,16.1
2022-10-14T13:18:01.479Z,16
2022-10-14T13:19:01.057Z,15.9
2022-10-14T13:20:01.633Z,15.9
2022-10-14T13:21:01.210Z,15.9
2022-10-14T13:22:01.925Z,15.8
2022-10-14T13:23:01.529Z,15.8
2022-10-14T13:24:01.033Z,15.7